East Dorset, Vermont
Current Conditions -  °F | °C
As of 1:55 AM on Sunday 26 Oct 2014 (Local Time) from KRUT Reporting Station
Overcast Overcast  
Wind Chill: 50°   Ceiling: 6000
Heat Index: 50°   Visibility: 10mi
Dew Point: 45°   Wind: 3mph
Humidity: 82%   Direction: 210°SSW
Pressure: 29.46"   Gusts: NA
Location:  43.24°N, 73.01°W
Report Text: KRUT 260555Z 21003KT 10SM FEW043 OVC060 10/07 A2946 RMK AO1 10120 20090 57017
Loading
Personal Weather Stations






























Interactive Weather Map
Tropical Storm Tracking
New forecast layout! Learn more

10-Day Weather Forecast

Advertisements
Track Severe Weather on mobile